createdAt,value
2023-08-18T00:00:41.828Z,18.33
2023-08-18T00:01:41.783Z,18.33
2023-08-18T00:02:41.794Z,18.35
2023-08-18T00:03:41.866Z,18.35
2023-08-18T00:04:41.763Z,18.34
2023-08-18T00:05:41.733Z,18.35
2023-08-18T00:06:41.747Z,18.37
2023-08-18T00:07:41.711Z,18.37
2023-08-18T00:08:41.700Z,18.35
2023-08-18T00:09:41.727Z,18.34
2023-08-18T00:10:41.676Z,18.35
2023-08-18T00:11:41.669Z,18.35
2023-08-18T00:12:41.682Z,18.35
2023-08-18T00:13:41.649Z,18.37
2023-08-18T00:14:41.633Z,18.35
2023-08-18T00:15:41.646Z,18.35
2023-08-18T00:16:41.657Z,18.34
2023-08-18T00:17:41.718Z,18.35
2023-08-18T00:18:41.618Z,18.35
2023-08-18T00:19:41.588Z,18.35
2023-08-18T00:20:41.569Z,18.34
2023-08-18T00:21:41.586Z,18.35
2023-08-18T00:22:41.571Z,18.34
2023-08-18T00:23:41.538Z,18.31
2023-08-18T00:24:41.559Z,18.31
2023-08-18T00:25:41.519Z,18.31
2023-08-18T00:26:41.536Z,18.31
2023-08-18T00:27:41.515Z,18.29
2023-08-18T00:28:41.491Z,18.29
2023-08-18T00:29:41.510Z,18.29
2023-08-18T00:30:41.465Z,18.28
2023-08-18T00:31:41.481Z,18.25
2023-08-18T00:32:41.501Z,18.26
2023-08-18T00:33:41.457Z,18.25
2023-08-18T00:34:41.426Z,18.23
2023-08-18T00:35:41.413Z,18.25
2023-08-18T00:36:41.418Z,18.25
2023-08-18T00:37:41.390Z,18.26
2023-08-18T00:38:41.382Z,18.26
2023-08-18T00:39:41.415Z,18.23
2023-08-18T00:40:41.364Z,18.25
2023-08-18T00:41:41.355Z,18.25
2023-08-18T00:42:41.335Z,18.23
2023-08-18T00:43:41.341Z,18.25
2023-08-18T00:44:41.320Z,18.20
2023-08-18T00:45:41.386Z,18.23
2023-08-18T00:46:41.310Z,18.22
2023-08-18T00:47:41.295Z,18.22
2023-08-18T00:48:41.275Z,18.20
2023-08-18T00:49:41.266Z,18.19
2023-08-18T00:50:41.249Z,18.15
2023-08-18T00:51:41.257Z,18.16
2023-08-18T00:52:41.237Z,18.13
2023-08-18T00:53:41.232Z,18.16
2023-08-18T00:54:41.229Z,18.16
2023-08-18T00:55:41.220Z,18.11
2023-08-18T00:56:41.187Z,18.16
2023-08-18T00:57:41.197Z,18.15
2023-08-18T00:58:41.183Z,18.13
2023-08-18T00:59:41.154Z,18.11
2023-08-18T01:00:41.140Z,18.13
2023-08-18T01:01:41.170Z,18.10
2023-08-18T01:02:41.135Z,18.11
2023-08-18T01:03:41.150Z,18.10
2023-08-18T01:04:41.135Z,18.11
2023-08-18T01:05:41.099Z,18.11
2023-08-18T01:06:41.154Z,18.08
2023-08-18T01:07:41.078Z,18.10
2023-08-18T01:08:41.062Z,18.07
2023-08-18T01:09:41.073Z,18.08
2023-08-18T01:10:41.042Z,18.10
2023-08-18T01:11:41.038Z,18.11
2023-08-18T01:12:41.031Z,18.11
2023-08-18T01:13:41.002Z,18.11
2023-08-18T01:14:40.994Z,18.10
2023-08-18T01:15:41.019Z,18.10
2023-08-18T01:16:41.003Z,18.07
2023-08-18T01:17:40.992Z,18.04
2023-08-18T01:18:40.955Z,18.04
2023-08-18T01:19:40.942Z,18.03
2023-08-18T01:20:40.963Z,18.03
2023-08-18T01:21:40.941Z,18.03
2023-08-18T01:22:40.909Z,18.01
2023-08-18T01:23:40.897Z,18.03
2023-08-18T01:24:40.896Z,18.00
2023-08-18T01:25:40.878Z,18.01
2023-08-18T01:26:40.866Z,18.03
2023-08-18T01:27:40.890Z,17.98
2023-08-18T01:28:40.855Z,17.98
2023-08-18T01:29:40.908Z,17.98
2023-08-18T01:30:40.946Z,18.00
2023-08-18T01:31:40.847Z,18.00
2023-08-18T01:32:40.815Z,17.98
2023-08-18T01:33:40.835Z,17.98
2023-08-18T01:34:40.787Z,17.98
2023-08-18T01:35:40.776Z,18.00
2023-08-18T01:36:40.758Z,18.00
2023-08-18T01:37:40.756Z,18.01
2023-08-18T01:38:40.748Z,17.98
2023-08-18T01:39:40.757Z,17.98
2023-08-18T01:40:40.747Z,17.98
2023-08-18T01:41:40.721Z,18.00
2023-08-18T01:42:40.706Z,17.98
2023-08-18T01:43:40.707Z,17.97
2023-08-18T01:44:40.677Z,17.92
2023-08-18T01:45:40.684Z,17.95
2023-08-18T01:46:40.749Z,17.98
2023-08-18T01:47:40.737Z,17.97
2023-08-18T01:48:40.637Z,17.95
2023-08-18T01:49:40.620Z,17.94
2023-08-18T01:50:40.626Z,17.95
2023-08-18T01:51:40.635Z,17.97
2023-08-18T01:52:40.592Z,17.95
2023-08-18T01:53:40.614Z,17.95
2023-08-18T01:54:40.574Z,17.98
2023-08-18T01:55:40.553Z,17.97
2023-08-18T01:56:40.563Z,17.94
2023-08-18T01:57:40.571Z,17.95
2023-08-18T01:58:40.529Z,17.97
2023-08-18T01:59:40.534Z,17.95
2023-08-18T02:00:40.537Z,17.95
2023-08-18T02:01:40.578Z,17.95
2023-08-18T02:02:40.538Z,17.94
2023-08-18T02:03:40.706Z,17.97
2023-08-18T02:04:40.488Z,17.92
2023-08-18T02:05:40.527Z,17.92
2023-08-18T02:06:40.442Z,17.92
2023-08-18T02:07:40.431Z,17.87
2023-08-18T02:08:40.426Z,17.92
2023-08-18T02:09:40.505Z,17.89
2023-08-18T02:10:40.400Z,17.87
2023-08-18T02:11:40.387Z,17.89
2023-08-18T02:12:40.412Z,17.89
2023-08-18T02:13:40.368Z,17.89
2023-08-18T02:14:40.360Z,17.87
2023-08-18T02:15:40.384Z,17.92
2023-08-18T02:16:40.365Z,17.94
2023-08-18T02:17:40.348Z,17.89
2023-08-18T02:18:40.349Z,17.92
2023-08-18T02:19:40.302Z,17.92
2023-08-18T02:20:40.299Z,17.92
2023-08-18T02:21:40.324Z,17.95
2023-08-18T02:22:40.276Z,17.92
2023-08-18T02:23:40.281Z,17.95
2023-08-18T02:24:40.282Z,17.97
2023-08-18T02:25:40.240Z,17.95
2023-08-18T02:26:40.231Z,17.97
2023-08-18T02:27:40.264Z,17.95
2023-08-18T02:28:40.227Z,18.00
2023-08-18T02:29:40.201Z,18.00
2023-08-18T02:30:40.188Z,17.97
2023-08-18T02:31:40.232Z,17.98
2023-08-18T02:32:40.176Z,17.98
2023-08-18T02:33:40.201Z,17.98
2023-08-18T02:34:40.177Z,17.98
2023-08-18T02:35:40.138Z,18.00
2023-08-18T02:36:40.125Z,17.98
2023-08-18T02:37:40.153Z,17.98
2023-08-18T02:38:40.103Z,18.01
2023-08-18T02:39:40.116Z,18.01
2023-08-18T02:40:40.121Z,18.03
2023-08-18T02:41:40.072Z,18.05
2023-08-18T02:42:40.064Z,18.03
2023-08-18T02:43:40.080Z,18.05
2023-08-18T02:44:40.045Z,18.04
2023-08-18T02:45:40.075Z,18.00
2023-08-18T02:46:40.028Z,18.00
2023-08-18T02:47:40.050Z,18.00
2023-08-18T02:48:40.012Z,17.97
2023-08-18T02:49:39.991Z,17.95
2023-08-18T02:50:39.987Z,17.95
2023-08-18T02:51:39.992Z,17.95
2023-08-18T02:52:39.957Z,17.95
2023-08-18T02:53:39.955Z,17.95
2023-08-18T02:54:39.936Z,17.94
2023-08-18T02:55:39.921Z,17.94
2023-08-18T02:56:39.926Z,17.95
2023-08-18T02:57:39.934Z,17.90
2023-08-18T02:58:39.889Z,17.94
2023-08-18T02:59:39.885Z,17.94
2023-08-18T03:00:39.892Z,17.94
2023-08-18T03:01:39.939Z,17.92
2023-08-18T03:02:39.860Z,17.90
2023-08-18T03:03:39.905Z,17.89
2023-08-18T03:04:39.856Z,17.90
2023-08-18T03:05:39.855Z,17.90
2023-08-18T03:06:39.803Z,17.90
2023-08-18T03:07:39.794Z,17.89
2023-08-18T03:08:39.809Z,17.90
2023-08-18T03:09:39.809Z,17.92
2023-08-18T03:10:39.762Z,17.92
2023-08-18T03:11:39.802Z,17.89
2023-08-18T03:12:39.746Z,17.89
2023-08-18T03:13:39.806Z,17.92
2023-08-18T03:14:39.739Z,17.92
2023-08-18T03:15:39.736Z,17.90
2023-08-18T03:16:39.707Z,17.90
2023-08-18T03:17:39.745Z,17.89
2023-08-18T03:18:39.685Z,17.89
2023-08-18T03:19:39.678Z,17.89
2023-08-18T03:20:39.657Z,17.89
2023-08-18T03:21:39.678Z,17.90
2023-08-18T03:22:39.637Z,17.89
2023-08-18T03:23:39.642Z,17.87
2023-08-18T03:24:39.620Z,17.87
2023-08-18T03:25:39.623Z,17.87
2023-08-18T03:26:39.604Z,17.89
2023-08-18T03:27:39.626Z,17.87
2023-08-18T03:28:39.572Z,17.86
2023-08-18T03:29:39.563Z,17.83
2023-08-18T03:30:39.558Z,17.86
2023-08-18T03:31:39.568Z,17.85
2023-08-18T03:32:39.567Z,17.83
2023-08-18T03:33:39.587Z,17.86
2023-08-18T03:34:39.528Z,17.86
2023-08-18T03:35:39.749Z,17.85
2023-08-18T03:36:39.491Z,17.85
2023-08-18T03:37:39.490Z,17.87
2023-08-18T03:38:39.502Z,17.89
2023-08-18T03:39:39.508Z,17.90
2023-08-18T03:40:39.448Z,17.94
2023-08-18T03:41:39.441Z,17.94
2023-08-18T03:42:39.427Z,17.94
2023-08-18T03:43:39.439Z,17.95
2023-08-18T03:44:39.408Z,17.94
2023-08-18T03:45:39.459Z,17.95
2023-08-18T03:46:39.377Z,17.94
2023-08-18T03:47:39.427Z,17.94
2023-08-18T03:48:39.357Z,17.92
2023-08-18T03:49:39.352Z,17.90
2023-08-18T03:50:39.373Z,17.90
2023-08-18T03:51:39.359Z,17.92
2023-08-18T03:52:39.312Z,17.90
2023-08-18T03:53:39.342Z,17.87
2023-08-18T03:54:39.309Z,17.86
2023-08-18T03:55:39.295Z,17.87
2023-08-18T03:56:39.301Z,17.87
2023-08-18T03:57:39.282Z,17.86
2023-08-18T03:58:39.249Z,17.86
2023-08-18T03:59:39.256Z,17.87
2023-08-18T04:00:39.309Z,17.89
2023-08-18T04:01:39.293Z,17.87
2023-08-18T04:02:39.254Z,17.89
2023-08-18T04:03:39.313Z,17.90
2023-08-18T04:04:39.187Z,17.89
2023-08-18T04:05:39.175Z,17.90
2023-08-18T04:06:39.177Z,17.90
2023-08-18T04:07:39.155Z,17.92
2023-08-18T04:08:39.170Z,17.89
2023-08-18T04:09:39.173Z,17.90
2023-08-18T04:10:39.129Z,17.90
2023-08-18T04:11:39.123Z,17.92
2023-08-18T04:12:39.126Z,17.89
2023-08-18T04:13:39.105Z,17.90
2023-08-18T04:14:39.087Z,17.92
2023-08-18T04:15:39.479Z,17.90
2023-08-18T04:16:39.061Z,17.95
2023-08-18T04:17:39.094Z,17.94
2023-08-18T04:18:39.051Z,17.94
2023-08-18T04:19:39.034Z,17.94
2023-08-18T04:20:39.056Z,17.95
2023-08-18T04:21:39.035Z,17.94
2023-08-18T04:22:38.999Z,17.90
2023-08-18T04:23:38.990Z,17.92
2023-08-18T04:24:38.989Z,17.90
2023-08-18T04:25:38.965Z,17.92
2023-08-18T04:26:38.955Z,17.90
2023-08-18T04:27:38.973Z,17.90
2023-08-18T04:28:38.941Z,17.89
2023-08-18T04:29:38.922Z,17.90
2023-08-18T04:30:38.929Z,17.90
2023-08-18T04:31:38.908Z,17.90
2023-08-18T04:32:38.900Z,17.89
2023-08-18T04:33:38.924Z,17.90
2023-08-18T04:34:38.872Z,17.89
2023-08-18T04:35:38.860Z,17.87
2023-08-18T04:36:38.868Z,17.89
2023-08-18T04:37:38.838Z,17.89
2023-08-18T04:38:38.841Z,17.86
2023-08-18T04:39:38.841Z,17.86
2023-08-18T04:40:38.808Z,17.85
2023-08-18T04:41:38.806Z,17.87
2023-08-18T04:42:38.789Z,17.85
2023-08-18T04:43:38.772Z,17.85
2023-08-18T04:44:38.785Z,17.83
2023-08-18T04:45:38.775Z,17.83
2023-08-18T04:46:38.820Z,17.83
2023-08-18T04:47:38.745Z,17.86
2023-08-18T04:48:38.721Z,17.83
2023-08-18T04:49:38.714Z,17.83
2023-08-18T04:50:38.719Z,17.85
2023-08-18T04:51:38.712Z,17.86
2023-08-18T04:52:38.681Z,17.85
2023-08-18T04:53:38.676Z,17.85
2023-08-18T04:54:38.669Z,17.83
2023-08-18T04:55:38.652Z,17.86
2023-08-18T04:56:38.698Z,17.85
2023-08-18T04:57:38.650Z,17.85
2023-08-18T04:58:38.615Z,17.86
2023-08-18T04:59:38.607Z,17.85
2023-08-18T05:00:38.631Z,17.86
2023-08-18T05:01:38.583Z,17.89
2023-08-18T05:02:38.615Z,17.87
2023-08-18T05:03:38.688Z,17.92
2023-08-18T05:04:38.553Z,17.90
2023-08-18T05:05:38.541Z,17.94
2023-08-18T05:06:38.541Z,17.90
2023-08-18T05:07:38.517Z,17.90
2023-08-18T05:08:38.517Z,17.89
2023-08-18T05:09:38.538Z,17.87
2023-08-18T05:10:38.491Z,17.89
2023-08-18T05:11:38.482Z,17.90
2023-08-18T05:12:38.476Z,17.90
2023-08-18T05:13:38.466Z,17.92
2023-08-18T05:14:38.448Z,17.94
2023-08-18T05:15:38.803Z,17.95
2023-08-18T05:16:38.472Z,17.92
2023-08-18T05:17:38.439Z,17.95
2023-08-18T05:18:38.415Z,17.92
2023-08-18T05:19:38.422Z,17.92
2023-08-18T05:20:38.390Z,17.90
2023-08-18T05:21:38.400Z,17.94
2023-08-18T05:22:38.372Z,17.94
2023-08-18T05:23:38.354Z,17.95
2023-08-18T05:24:38.372Z,17.95
2023-08-18T05:25:38.330Z,17.95
2023-08-18T05:26:38.330Z,17.94
2023-08-18T05:27:38.376Z,17.92
2023-08-18T05:28:38.368Z,17.92
2023-08-18T05:29:38.320Z,17.92
2023-08-18T05:30:38.327Z,17.94
2023-08-18T05:31:38.268Z,17.95
2023-08-18T05:32:38.295Z,17.95
2023-08-18T05:33:38.277Z,18.00
2023-08-18T05:34:38.241Z,18.01
2023-08-18T05:35:38.232Z,18.01
2023-08-18T05:36:38.223Z,18.01
2023-08-18T05:37:38.224Z,18.03
2023-08-18T05:38:38.200Z,18.05
2023-08-18T05:39:38.238Z,18.04
2023-08-18T05:40:38.207Z,18.04
2023-08-18T05:41:38.167Z,18.05
2023-08-18T05:42:38.185Z,18.05
2023-08-18T05:43:38.156Z,18.07
2023-08-18T05:44:38.133Z,18.10
2023-08-18T05:45:38.166Z,18.05
2023-08-18T05:46:38.247Z,18.07
2023-08-18T05:47:38.213Z,18.10
2023-08-18T05:48:38.107Z,18.11
2023-08-18T05:49:38.076Z,18.13
2023-08-18T05:50:38.092Z,18.13
2023-08-18T05:51:38.080Z,18.15
2023-08-18T05:52:38.067Z,18.15
2023-08-18T05:53:38.131Z,18.16
2023-08-18T05:54:38.042Z,18.16
2023-08-18T05:55:38.019Z,18.19
2023-08-18T05:56:38.034Z,18.19
2023-08-18T05:57:38.026Z,18.18
2023-08-18T05:58:37.997Z,18.20
2023-08-18T05:59:37.991Z,18.20
2023-08-18T06:00:37.975Z,18.23
2023-08-18T06:01:37.975Z,18.25
2023-08-18T06:02:37.988Z,18.28
2023-08-18T06:03:37.983Z,18.28
2023-08-18T06:04:37.920Z,18.29
2023-08-18T06:05:37.913Z,18.29
2023-08-18T06:06:37.927Z,18.31
2023-08-18T06:07:37.890Z,18.31
2023-08-18T06:08:37.911Z,18.34
2023-08-18T06:09:37.907Z,18.34
2023-08-18T06:10:37.862Z,18.34
2023-08-18T06:11:37.872Z,18.33
2023-08-18T06:12:37.861Z,18.35
2023-08-18T06:13:37.828Z,18.34
2023-08-18T06:14:37.839Z,18.35
2023-08-18T06:15:37.876Z,18.37
2023-08-18T06:16:37.849Z,18.38
2023-08-18T06:17:37.793Z,18.38
2023-08-18T06:18:37.791Z,18.40
2023-08-18T06:19:37.792Z,18.41
2023-08-18T06:20:37.751Z,18.38
2023-08-18T06:21:37.770Z,18.40
2023-08-18T06:22:37.739Z,18.40
2023-08-18T06:23:37.741Z,18.43
2023-08-18T06:24:37.709Z,18.44
2023-08-18T06:25:37.698Z,18.43
2023-08-18T06:26:37.693Z,18.43
2023-08-18T06:27:37.703Z,18.44
2023-08-18T06:28:37.663Z,18.45
2023-08-18T06:29:37.663Z,18.47
2023-08-18T06:30:37.657Z,18.49
2023-08-18T06:31:37.665Z,18.50
2023-08-18T06:32:37.659Z,18.49
2023-08-18T06:33:37.657Z,18.50
2023-08-18T06:34:37.666Z,18.52
2023-08-18T06:35:37.590Z,18.52
2023-08-18T06:36:37.588Z,18.49
2023-08-18T06:37:37.578Z,18.49
2023-08-18T06:38:37.561Z,18.47
2023-08-18T06:39:37.682Z,18.50
2023-08-18T06:40:37.532Z,18.50
2023-08-18T06:41:37.547Z,18.52
2023-08-18T06:42:37.525Z,18.49
2023-08-18T06:43:37.578Z,18.50
2023-08-18T06:44:37.494Z,18.53
2023-08-18T06:45:37.565Z,18.50
2023-08-18T06:46:37.509Z,18.52
2023-08-18T06:47:37.496Z,18.53
2023-08-18T06:48:37.454Z,18.56
2023-08-18T06:49:37.492Z,18.55
2023-08-18T06:50:37.429Z,18.59
2023-08-18T06:51:37.475Z,18.58
2023-08-18T06:52:37.471Z,18.58
2023-08-18T06:53:40.281Z,18.56
2023-08-18T06:54:37.513Z,18.58
2023-08-18T06:55:47.496Z,18.56
2023-08-18T06:56:37.367Z,18.53
2023-08-18T06:57:37.494Z,18.55
2023-08-18T06:58:37.351Z,18.53
2023-08-18T06:59:37.350Z,18.52
2023-08-18T07:00:37.334Z,18.53
2023-08-18T07:01:37.397Z,18.55
2023-08-18T07:02:37.374Z,18.53
2023-08-18T07:03:37.422Z,18.56
2023-08-18T07:04:37.282Z,18.59
2023-08-18T07:05:37.267Z,18.59
2023-08-18T07:06:37.264Z,18.59
2023-08-18T07:07:37.272Z,18.59
2023-08-18T07:08:37.238Z,18.62
2023-08-18T07:09:37.290Z,18.60
2023-08-18T07:10:37.225Z,18.62
2023-08-18T07:11:37.217Z,18.62
2023-08-18T07:12:37.203Z,18.62
2023-08-18T07:13:37.198Z,18.65
2023-08-18T07:14:37.179Z,18.70
2023-08-18T07:15:37.212Z,18.66
2023-08-18T07:16:37.161Z,18.70
2023-08-18T07:17:37.177Z,18.66
2023-08-18T07:18:37.164Z,18.63
2023-08-18T07:19:37.132Z,18.65
2023-08-18T07:20:37.128Z,18.65
2023-08-18T07:21:37.143Z,18.65
2023-08-18T07:22:37.097Z,18.62
2023-08-18T07:23:37.095Z,18.59
2023-08-18T07:24:37.091Z,18.59
2023-08-18T07:25:37.055Z,18.60
2023-08-18T07:26:37.075Z,18.60
2023-08-18T07:27:37.089Z,18.59
2023-08-18T07:28:37.042Z,18.60
2023-08-18T07:29:37.028Z,18.62
2023-08-18T07:30:37.027Z,18.62
2023-08-18T07:31:37.042Z,18.65
2023-08-18T07:32:37.003Z,18.66
2023-08-18T07:33:37.001Z,18.68
2023-08-18T07:34:37.000Z,18.70
2023-08-18T07:35:36.965Z,18.71
2023-08-18T07:36:36.958Z,18.73
2023-08-18T07:37:53.832Z,18.71
2023-08-18T07:38:36.967Z,18.73
2023-08-18T07:39:36.953Z,18.75
2023-08-18T07:40:36.910Z,18.75
2023-08-18T07:41:36.888Z,18.78
2023-08-18T07:42:36.889Z,18.80
2023-08-18T07:43:36.881Z,18.78
2023-08-18T07:44:36.854Z,18.80
2023-08-18T07:45:36.898Z,18.83
2023-08-18T07:46:36.874Z,18.84
2023-08-18T07:47:36.846Z,18.83
2023-08-18T07:48:36.816Z,18.86
2023-08-18T07:49:36.814Z,18.88
2023-08-18T07:50:36.801Z,18.89
2023-08-18T07:51:36.815Z,18.89
2023-08-18T07:52:36.777Z,18.92
2023-08-18T07:53:36.779Z,18.96
2023-08-18T07:54:36.754Z,18.99
2023-08-18T07:55:36.740Z,18.99
2023-08-18T07:56:36.759Z,19.02
2023-08-18T07:57:36.771Z,19.02
2023-08-18T07:58:37.083Z,19.07
2023-08-18T07:59:36.708Z,19.08
2023-08-18T08:00:36.680Z,19.09
2023-08-18T08:01:36.686Z,19.09
2023-08-18T08:02:36.970Z,19.12
2023-08-18T08:03:36.814Z,19.12
2023-08-18T08:04:36.646Z,19.12
2023-08-18T08:05:36.643Z,19.14
2023-08-18T08:06:36.627Z,19.16
2023-08-18T08:07:36.653Z,19.15
2023-08-18T08:08:36.616Z,19.16
2023-08-18T08:09:36.619Z,19.19
2023-08-18T08:10:36.599Z,19.22
2023-08-18T08:11:36.564Z,19.22
2023-08-18T08:12:36.553Z,19.26
2023-08-18T08:13:36.541Z,19.29
2023-08-18T08:14:36.539Z,19.29
2023-08-18T08:15:37.870Z,19.29
2023-08-18T08:16:36.526Z,19.30
2023-08-18T08:17:36.517Z,19.31
2023-08-18T08:18:36.491Z,19.33
2023-08-18T08:19:36.494Z,19.33
2023-08-18T08:20:36.475Z,19.34
2023-08-18T08:21:37.079Z,19.31
2023-08-18T08:22:36.471Z,19.31
2023-08-18T08:23:36.466Z,19.31
2023-08-18T08:24:36.500Z,19.33
2023-08-18T08:25:36.433Z,19.34
2023-08-18T08:26:36.413Z,19.39
2023-08-18T08:27:36.462Z,19.41
2023-08-18T08:28:36.386Z,19.49
2023-08-18T08:29:36.386Z,19.51
2023-08-18T08:30:37.199Z,19.55
2023-08-18T08:31:36.404Z,19.56
2023-08-18T08:32:36.425Z,19.58
2023-08-18T08:33:36.431Z,19.62
2023-08-18T08:34:36.330Z,19.63
2023-08-18T08:35:36.320Z,19.64
2023-08-18T08:36:36.306Z,19.64
2023-08-18T08:37:38.991Z,19.69
2023-08-18T08:38:36.273Z,19.70
2023-08-18T08:39:36.651Z,19.70
2023-08-18T08:40:36.257Z,19.70
2023-08-18T08:41:36.307Z,19.71
2023-08-18T08:42:36.240Z,19.76
2023-08-18T08:43:36.224Z,19.77
2023-08-18T08:44:36.221Z,19.82
2023-08-18T08:45:36.508Z,19.86
2023-08-18T08:46:36.244Z,19.88
2023-08-18T08:47:36.190Z,19.86
2023-08-18T08:48:36.175Z,19.89
2023-08-18T08:49:36.190Z,19.86
2023-08-18T08:50:36.144Z,19.86
2023-08-18T08:51:36.721Z,19.92
2023-08-18T08:52:36.124Z,19.95
2023-08-18T08:53:36.114Z,20.00
2023-08-18T08:54:36.119Z,20.02
2023-08-18T08:55:36.113Z,20.04
2023-08-18T08:56:36.090Z,20.06
2023-08-18T08:57:36.103Z,20.09
2023-08-18T08:58:36.064Z,20.11
2023-08-18T08:59:36.060Z,20.18
2023-08-18T09:00:36.061Z,20.24
2023-08-18T09:01:40.934Z,20.25
2023-08-18T09:02:36.106Z,20.28
2023-08-18T09:03:36.605Z,20.31
2023-08-18T09:04:35.996Z,20.34
2023-08-18T09:05:36.014Z,20.36
2023-08-18T09:06:35.974Z,20.37
2023-08-18T09:07:35.988Z,20.40
2023-08-18T09:08:35.967Z,20.40
2023-08-18T09:09:35.981Z,20.48
2023-08-18T09:10:35.946Z,20.50
2023-08-18T09:11:35.941Z,20.50
2023-08-18T09:12:36.228Z,20.55
2023-08-18T09:13:35.909Z,20.60
2023-08-18T09:14:35.889Z,20.65
2023-08-18T09:15:35.923Z,20.70
2023-08-18T09:16:35.870Z,20.74
2023-08-18T09:18:35.852Z,20.81
2023-08-18T09:19:35.849Z,20.85
2023-08-18T09:20:35.837Z,20.90
2023-08-18T09:21:35.846Z,20.96
2023-08-18T09:22:35.807Z,21.06
2023-08-18T09:23:35.794Z,21.17
2023-08-18T09:24:35.813Z,21.21
2023-08-18T09:25:35.790Z,21.21
2023-08-18T09:26:35.770Z,21.25
2023-08-18T09:27:35.777Z,21.22
2023-08-18T09:28:35.759Z,21.18
2023-08-18T09:29:35.811Z,21.27
2023-08-18T09:30:35.755Z,21.30
2023-08-18T09:31:35.772Z,21.35
2023-08-18T09:32:36.019Z,21.46
2023-08-18T09:33:35.781Z,21.66
2023-08-18T09:34:35.688Z,21.77
2023-08-18T09:35:35.674Z,21.82
2023-08-18T09:36:35.657Z,21.95
2023-08-18T09:37:35.663Z,22.10
2023-08-18T09:38:36.309Z,22.13
2023-08-18T09:39:39.101Z,22.28
2023-08-18T09:40:35.617Z,22.44
2023-08-18T09:41:35.644Z,22.57
2023-08-18T09:42:35.592Z,22.70
2023-08-18T09:43:35.599Z,22.81
2023-08-18T09:44:35.572Z,22.81
2023-08-18T09:45:35.595Z,22.88
2023-08-18T09:46:35.583Z,22.91
2023-08-18T09:47:35.582Z,22.98
2023-08-18T09:48:35.528Z,23.00
2023-08-18T09:49:35.535Z,22.98
2023-08-18T09:50:35.509Z,23.00
2023-08-18T09:51:35.550Z,23.03
2023-08-18T09:52:35.497Z,23.06
2023-08-18T09:53:35.499Z,23.06
2023-08-18T09:54:35.468Z,23.09
2023-08-18T09:55:35.499Z,23.13
2023-08-18T09:56:36.479Z,23.18
2023-08-18T09:57:35.474Z,23.23
2023-08-18T09:58:35.421Z,23.18
2023-08-18T09:59:35.426Z,23.18
2023-08-18T10:00:35.406Z,23.21
2023-08-18T10:01:35.482Z,23.23
2023-08-18T10:02:35.442Z,23.24
2023-08-18T10:03:35.399Z,23.25
2023-08-18T10:04:35.385Z,23.28
2023-08-18T10:05:35.370Z,23.28
2023-08-18T10:06:35.343Z,23.31
2023-08-18T10:07:35.341Z,23.31
2023-08-18T10:08:35.328Z,23.34
2023-08-18T10:09:35.355Z,23.32
2023-08-18T10:10:35.334Z,23.36
2023-08-18T10:11:49.467Z,23.36
2023-08-18T10:12:35.303Z,23.37
2023-08-18T10:13:35.276Z,23.28
2023-08-18T10:14:35.248Z,23.32
2023-08-18T10:15:35.287Z,23.40
2023-08-18T10:16:35.278Z,23.47
2023-08-18T10:17:35.243Z,23.48
2023-08-18T10:18:35.275Z,23.50
2023-08-18T10:19:35.197Z,23.56
2023-08-18T10:20:35.204Z,23.61
2023-08-18T10:21:35.210Z,23.55
2023-08-18T10:22:35.190Z,23.51
2023-08-18T10:23:35.156Z,23.54
2023-08-18T10:24:35.153Z,23.58
2023-08-18T10:25:35.147Z,23.66
2023-08-18T10:26:35.123Z,23.68
2023-08-18T10:27:35.142Z,23.71
2023-08-18T10:28:35.121Z,23.71
2023-08-18T10:29:35.837Z,23.74
2023-08-18T10:30:35.092Z,23.77
2023-08-18T10:31:35.085Z,23.76
2023-08-18T10:32:35.095Z,23.83
2023-08-18T10:33:35.080Z,23.86
2023-08-18T10:34:35.053Z,23.93
2023-08-18T10:35:35.043Z,24.02
2023-08-18T10:36:35.038Z,24.06
2023-08-18T10:37:35.012Z,24.13
2023-08-18T10:38:35.008Z,24.21
2023-08-18T10:39:35.015Z,24.30
2023-08-18T10:40:35.078Z,24.38
2023-08-18T10:41:34.985Z,24.29
2023-08-18T10:42:35.233Z,24.29
2023-08-18T10:43:34.970Z,24.28
2023-08-18T10:44:34.945Z,24.32
2023-08-18T10:45:35.316Z,24.42
2023-08-18T10:46:34.945Z,24.47
2023-08-18T10:47:34.937Z,24.50
2023-08-18T10:48:34.891Z,24.55
2023-08-18T10:49:34.889Z,24.61
2023-08-18T10:50:35.711Z,24.69
2023-08-18T10:51:34.895Z,24.76
2023-08-18T10:52:34.862Z,24.78
2023-08-18T10:53:34.850Z,24.84
2023-08-18T10:54:34.826Z,24.89
2023-08-18T10:55:34.816Z,24.93
2023-08-18T10:56:34.821Z,24.96
2023-08-18T10:57:34.843Z,24.95
2023-08-18T10:58:34.795Z,24.99
2023-08-18T10:59:36.265Z,24.98
2023-08-18T11:00:34.798Z,25.03
2023-08-18T11:01:34.803Z,25.07
2023-08-18T11:02:34.804Z,25.07
2023-08-18T11:03:34.769Z,25.13
2023-08-18T11:04:34.790Z,25.18
2023-08-18T11:05:34.727Z,25.21
2023-08-18T11:06:34.728Z,25.23
2023-08-18T11:07:34.713Z,25.25
2023-08-18T11:08:34.675Z,25.31
2023-08-18T11:09:34.701Z,25.33
2023-08-18T11:10:34.667Z,25.31
2023-08-18T11:11:34.651Z,25.33
2023-08-18T11:12:34.638Z,25.40
2023-08-18T11:13:34.645Z,25.38
2023-08-18T11:14:34.642Z,25.40
2023-08-18T11:15:35.282Z,25.43
2023-08-18T11:16:34.596Z,25.50
2023-08-18T11:17:34.611Z,25.53
2023-08-18T11:18:34.628Z,25.54
2023-08-18T11:19:34.593Z,25.58
2023-08-18T11:20:34.584Z,25.58
2023-08-18T11:21:34.584Z,25.62
2023-08-18T11:22:34.532Z,25.68
2023-08-18T11:23:34.530Z,25.72
2023-08-18T11:24:34.522Z,25.77
2023-08-18T11:25:34.508Z,25.83
2023-08-18T11:26:34.527Z,25.85
2023-08-18T11:27:34.513Z,25.85
2023-08-18T11:28:34.507Z,25.84
2023-08-18T11:29:34.471Z,25.88
2023-08-18T11:30:34.465Z,25.95
2023-08-18T11:31:34.532Z,26.03
2023-08-18T11:32:34.471Z,26.07
2023-08-18T11:33:34.462Z,26.07
2023-08-18T11:34:34.423Z,26.06
2023-08-18T11:35:34.399Z,26.09
2023-08-18T11:36:34.399Z,26.07
2023-08-18T11:37:34.376Z,26.05
2023-08-18T11:38:34.380Z,26.07
2023-08-18T11:39:34.489Z,26.10
2023-08-18T11:40:34.353Z,26.19
2023-08-18T11:41:34.373Z,26.28
2023-08-18T11:42:34.342Z,26.34
2023-08-18T11:43:34.336Z,26.36
2023-08-18T11:44:34.312Z,26.41
2023-08-18T11:45:34.339Z,26.45
2023-08-18T11:46:34.324Z,26.43
2023-08-18T11:47:34.310Z,26.45
2023-08-18T11:48:34.275Z,26.52
2023-08-18T11:49:34.277Z,26.48
2023-08-18T11:50:34.259Z,26.45
2023-08-18T11:51:34.288Z,26.45
2023-08-18T11:52:34.226Z,26.47
2023-08-18T11:53:34.226Z,26.48
2023-08-18T11:54:34.204Z,26.51
2023-08-18T11:55:34.242Z,26.55
2023-08-18T11:56:34.207Z,26.53
2023-08-18T11:57:34.226Z,26.53
2023-08-18T11:58:34.161Z,26.71
2023-08-18T11:59:34.155Z,26.78
2023-08-18T12:00:34.180Z,26.92
2023-08-18T12:01:34.288Z,26.99
2023-08-18T12:02:34.137Z,27.08
2023-08-18T12:03:34.168Z,27.20
2023-08-18T12:04:34.112Z,27.32
2023-08-18T12:05:34.088Z,27.33
2023-08-18T12:06:34.164Z,27.33
2023-08-18T12:07:34.082Z,27.37
2023-08-18T12:08:34.064Z,27.33
2023-08-18T12:09:34.103Z,27.32
2023-08-18T12:10:34.038Z,27.30
2023-08-18T12:11:34.278Z,27.26
2023-08-18T12:12:34.054Z,27.29
2023-08-18T12:13:34.035Z,27.29
2023-08-18T12:14:34.007Z,27.29
2023-08-18T12:15:34.082Z,27.30
2023-08-18T12:16:33.984Z,27.32
2023-08-18T12:17:34.038Z,27.30
2023-08-18T12:18:33.954Z,27.35
2023-08-18T12:19:35.932Z,27.42
2023-08-18T12:20:33.938Z,27.54
2023-08-18T12:21:33.952Z,27.63
2023-08-18T12:22:33.916Z,27.74
2023-08-18T12:23:33.920Z,27.83
2023-08-18T12:24:33.888Z,27.85
2023-08-18T12:25:33.917Z,27.93
2023-08-18T12:26:33.897Z,28.02
2023-08-18T12:27:33.898Z,28.10
2023-08-18T12:28:33.858Z,28.08
2023-08-18T12:29:33.846Z,28.12
2023-08-18T12:30:33.848Z,28.08
2023-08-18T12:31:33.985Z,28.05
2023-08-18T12:32:34.155Z,28.04
2023-08-18T12:33:33.834Z,28.01
2023-08-18T12:34:33.814Z,27.95
2023-08-18T12:35:33.811Z,27.86
2023-08-18T12:36:33.782Z,27.86
2023-08-18T12:37:33.761Z,27.87
2023-08-18T12:38:33.776Z,27.89
2023-08-18T12:39:33.757Z,27.90
2023-08-18T12:40:33.737Z,27.93
2023-08-18T12:41:33.722Z,27.92
2023-08-18T12:42:33.898Z,27.93
2023-08-18T12:43:33.695Z,27.98
2023-08-18T12:44:33.689Z,28.07
2023-08-18T12:45:33.733Z,28.12
2023-08-18T12:46:33.712Z,28.15
2023-08-18T12:47:33.684Z,28.15
2023-08-18T12:48:33.676Z,28.14
2023-08-18T12:49:33.655Z,28.14
2023-08-18T12:50:33.638Z,28.15
2023-08-18T12:51:33.659Z,28.17
2023-08-18T12:52:33.606Z,28.17
2023-08-18T12:53:33.612Z,28.17